Time;durP1;ratioP1;P1;durP2;ratioP2;P2;SDS_P1;SDS_P2;PMS_P1;PMS_P2;Temp;Humidity;BMP_temperature;BMP_pressure;BME280_temperature;BME280_humidity;BME280_pressure;Samples;Min_cycle;Max_cycle;Signal;HPM_P1;HPM_P2
2024/04/23 00:00:34;;;;;;;6.40;3.25;;;;;;;;;;5491196;26;20008;-83
2024/04/23 00:03:19;;;;;;;7.38;3.28;;;;;;;;;;5508313;26;20001;-83
2024/04/23 00:06:04;;;;;;;6.20;3.60;;;;;;;;;;5501807;26;20039;-84
2024/04/23 00:08:50;;;;;;;5.95;3.58;;;;;;;;;;5483692;26;19998;-84
2024/04/23 00:11:35;;;;;;;5.18;3.25;;;;;;;;;;5504918;26;20580;-84
2024/04/23 00:14:21;;;;;;;7.00;4.00;;;;;;;;;;5515540;26;19994;-84
2024/04/23 00:17:06;;;;;;;8.85;4.13;;;;;;;;;;5491504;26;20452;-84
2024/04/23 00:19:51;;;;;;;6.18;3.65;;;;;;;;;;5490912;26;20356;-83
2024/04/23 00:22:36;;;;;;;7.88;3.72;;;;;;;;;;5491724;26;20436;-83
2024/04/23 00:25:21;;;;;;;6.65;3.15;;;;;;;;;;5513662;26;19998;-84
2024/04/23 00:28:07;;;;;;;6.50;3.67;;;;;;;;;;5454232;26;20073;-84
2024/04/23 00:30:52;;;;;;;5.07;3.38;;;;;;;;;;5491740;26;20464;-84
2024/04/23 00:33:37;;;;;;;5.90;3.45;;;;;;;;;;5500759;26;20372;-84
2024/04/23 00:36:22;;;;;;;5.00;3.20;;;;;;;;;;5485097;26;20427;-84
2024/04/23 00:39:07;;;;;;;8.70;3.80;;;;;;;;;;5472092;26;20017;-83
2024/04/23 00:41:53;;;;;;;5.97;3.55;;;;;;;;;;5489040;26;20015;-83
2024/04/23 00:44:38;;;;;;;5.43;3.70;;;;;;;;;;5485510;26;19999;-84
2024/04/23 00:47:24;;;;;;;5.65;3.20;;;;;;;;;;5472656;26;20401;-85
2024/04/23 00:50:09;;;;;;;6.70;3.30;;;;;;;;;;5493135;26;20527;-84
2024/04/23 00:52:54;;;;;;;7.65;4.15;;;;;;;;;;5461578;26;20009;-85
2024/04/23 00:55:40;;;;;;;5.20;3.53;;;;;;;;;;5468357;26;20011;-83
2024/04/23 00:58:26;;;;;;;6.28;3.85;;;;;;;;;;5500909;26;20341;-85
2024/04/23 01:01:11;;;;;;;7.60;4.40;;;;;;;;;;5502543;26;20693;-84
2024/04/23 01:03:58;;;;;;;7.90;3.85;;;;;;;;;;5491181;26;19997;-83
2024/04/23 01:06:43;;;;;;;9.35;3.78;;;;;;;;;;5485709;26;20333;-84
2024/04/23 01:09:29;;;;;;;5.97;3.65;;;;;;;;;;5478000;26;20425;-84
2024/04/23 01:12:14;;;;;;;6.93;3.72;;;;;;;;;;5491111;26;19993;-83
2024/04/23 01:15:00;;;;;;;7.35;3.83;;;;;;;;;;5489252;26;19997;-84
2024/04/23 01:17:47;;;;;;;8.65;4.57;;;;;;;;;;5480775;26;20001;-86
2024/04/23 01:20:32;;;;;;;6.05;3.65;;;;;;;;;;5482202;26;20001;-83
2024/04/23 01:23:21;;;;;;;5.10;3.08;;;;;;;;;;5462170;26;20002;-84
2024/04/23 01:26:08;;;;;;;6.85;3.80;;;;;;;;;;5475423;26;20031;-84
2024/04/23 01:28:54;;;;;;;8.70;4.97;;;;;;;;;;5464400;26;20009;-83
2024/04/23 01:31:39;;;;;;;6.40;3.60;;;;;;;;;;5497220;26;20033;-84
2024/04/23 01:34:26;;;;;;;8.00;3.83;;;;;;;;;;5500132;26;19998;-84
2024/04/23 01:37:11;;;;;;;6.68;3.47;;;;;;;;;;5490904;26;19997;-84
2024/04/23 01:39:58;;;;;;;6.30;3.40;;;;;;;;;;5462869;26;20363;-83
2024/04/23 01:42:43;;;;;;;5.90;3.35;;;;;;;;;;5485768;26;20001;-84
2024/04/23 01:45:29;;;;;;;6.55;3.75;;;;;;;;;;5483644;26;19998;-84
2024/04/23 01:48:14;;;;;;;4.75;3.47;;;;;;;;;;5487247;26;20006;-84
2024/04/23 01:50:59;;;;;;;6.43;3.90;;;;;;;;;;5458678;26;20075;-83
2024/04/23 01:53:45;;;;;;;6.65;3.75;;;;;;;;;;5494208;26;19998;-82
2024/04/23 01:56:30;;;;;;;6.20;3.85;;;;;;;;;;5493599;26;20001;-83
2024/04/23 01:59:15;;;;;;;5.53;3.33;;;;;;;;;;5455467;26;20013;-82
2024/04/23 02:02:01;;;;;;;6.55;3.67;;;;;;;;;;5473437;26;20002;-82
2024/04/23 02:04:46;;;;;;;6.05;3.53;;;;;;;;;;5494935;26;20007;-83
2024/04/23 02:07:34;;;;;;;5.82;3.47;;;;;;;;;;5482664;26;20009;-83
2024/04/23 02:10:20;;;;;;;5.68;3.47;;;;;;;;;;5474618;26;20001;-84
2024/04/23 02:13:07;;;;;;;8.90;3.80;;;;;;;;;;5468311;26;20005;-83
2024/04/23 02:15:52;;;;;;;5.30;3.30;;;;;;;;;;5467650;26;20818;-84
2024/04/23 02:18:37;;;;;;;7.65;4.25;;;;;;;;;;5510577;26;19998;-84
2024/04/23 02:21:23;;;;;;;6.57;3.75;;;;;;;;;;5475462;26;20017;-84
2024/04/23 02:24:08;;;;;;;6.63;3.70;;;;;;;;;;5464204;26;20099;-84
2024/04/23 02:26:53;;;;;;;7.35;4.05;;;;;;;;;;5475839;26;20005;-83
2024/04/23 02:29:38;;;;;;;6.97;3.50;;;;;;;;;;5464618;26;20081;-83
2024/04/23 02:32:24;;;;;;;6.75;4.10;;;;;;;;;;5474168;26;20376;-84
2024/04/23 02:35:09;;;;;;;7.93;3.85;;;;;;;;;;5492824;26;20017;-84
2024/04/23 02:37:54;;;;;;;6.32;3.50;;;;;;;;;;5488313;26;20016;-82
2024/04/23 02:40:39;;;;;;;6.53;3.70;;;;;;;;;;5468681;26;20016;-83
2024/04/23 02:43:24;;;;;;;6.90;3.47;;;;;;;;;;5484031;26;20005;-83
2024/04/23 02:46:10;;;;;;;7.75;4.40;;;;;;;;;;5458902;26;20009;-84
2024/04/23 02:48:55;;;;;;;7.28;4.15;;;;;;;;;;5469613;26;19997;-82
2024/04/23 02:51:53;;;;;;;8.20;3.95;;;;;;;;;;5491377;26;20550;-83
2024/04/23 02:54:38;;;;;;;7.15;4.03;;;;;;;;;;5475341;26;20009;-82
2024/04/23 02:57:24;;;;;;;10.95;4.13;;;;;;;;;;5488895;26;20095;-82
2024/04/23 03:00:09;;;;;;;6.88;4.30;;;;;;;;;;5488010;26;20250;-84
2024/04/23 03:02:54;;;;;;;7.25;4.38;;;;;;;;;;5479744;26;19998;-82
2024/04/23 03:05:40;;;;;;;9.45;4.47;;;;;;;;;;5492956;26;20005;-82
2024/04/23 03:08:25;;;;;;;11.18;4.97;;;;;;;;;;5488184;26;20057;-82
2024/04/23 03:11:10;;;;;;;6.97;4.35;;;;;;;;;;5460263;26;20008;-83
2024/04/23 03:13:56;;;;;;;8.00;4.97;;;;;;;;;;5487952;26;19997;-83
2024/04/23 03:16:41;;;;;;;9.25;4.38;;;;;;;;;;5457782;26;19998;-83
2024/04/23 03:19:26;;;;;;;8.23;4.60;;;;;;;;;;5485671;26;20016;-83
2024/04/23 03:22:12;;;;;;;6.72;3.88;;;;;;;;;;5466491;26;20005;-83
2024/04/23 03:24:57;;;;;;;7.50;4.22;;;;;;;;;;5455323;26;20491;-83
2024/04/23 03:27:42;;;;;;;7.53;4.43;;;;;;;;;;5491237;26;19993;-84
2024/04/23 03:30:46;;;;;;;8.05;4.18;;;;;;;;;;5478629;26;20100;-84
2024/04/23 03:33:32;;;;;;;9.13;4.78;;;;;;;;;;5462124;26;20009;-83
2024/04/23 03:36:17;;;;;;;10.80;5.13;;;;;;;;;;5471802;26;20006;-83
2024/04/23 03:39:02;;;;;;;9.52;5.50;;;;;;;;;;5459805;26;20080;-84
2024/04/23 03:41:57;;;;;;;7.78;4.40;;;;;;;;;;5465493;26;20030;-84
2024/04/23 03:44:42;;;;;;;8.57;5.35;;;;;;;;;;5473632;26;19994;-83
2024/04/23 03:47:29;;;;;;;7.68;4.60;;;;;;;;;;5462783;26;19999;-83
2024/04/23 03:50:14;;;;;;;6.80;4.25;;;;;;;;;;5484576;26;20001;-84
2024/04/23 03:52:59;;;;;;;8.48;4.90;;;;;;;;;;5463522;26;20019;-82
2024/04/23 03:55:44;;;;;;;8.15;5.35;;;;;;;;;;5461955;26;20009;-83
2024/04/23 03:58:30;;;;;;;8.65;4.60;;;;;;;;;;5474806;26;19999;-83
2024/04/23 04:01:15;;;;;;;7.18;4.22;;;;;;;;;;5469500;26;19998;-83
2024/04/23 04:07:04;;;;;;;8.93;4.70;;;;;;;;;;5487758;26;20204;-84
2024/04/23 04:09:49;;;;;;;9.10;4.50;;;;;;;;;;5455222;26;19998;-83
2024/04/23 04:12:35;;;;;;;10.40;5.13;;;;;;;;;;5468784;26;19998;-84
2024/04/23 04:15:20;;;;;;;9.50;5.18;;;;;;;;;;5454153;26;20353;-83
2024/04/23 04:18:05;;;;;;;10.80;5.13;;;;;;;;;;5469119;26;20010;-84
2024/04/23 04:20:50;;;;;;;9.10;5.35;;;;;;;;;;5464342;26;20005;-84
2024/04/23 04:23:36;;;;;;;8.57;4.78;;;;;;;;;;5454702;26;19998;-84
2024/04/23 04:26:21;;;;;;;10.38;5.30;;;;;;;;;;5458449;26;20002;-84
2024/04/23 04:29:06;;;;;;;9.70;5.35;;;;;;;;;;5464341;26;19998;-84
2024/04/23 04:31:51;;;;;;;10.52;5.15;;;;;;;;;;5476242;26;20016;-83
2024/04/23 04:34:37;;;;;;;12.02;6.00;;;;;;;;;;5463827;26;20002;-83
2024/04/23 04:37:22;;;;;;;8.90;4.88;;;;;;;;;;5485847;26;19997;-82
2024/04/23 04:40:07;;;;;;;9.85;4.82;;;;;;;;;;5475758;26;19994;-82
2024/04/23 04:42:53;;;;;;;9.75;5.18;;;;;;;;;;5472375;26;20009;-83
2024/04/23 04:45:38;;;;;;;9.93;5.32;;;;;;;;;;5465923;26;20009;-84
2024/04/23 04:48:23;;;;;;;12.10;5.55;;;;;;;;;;5507170;26;20014;-79
2024/04/23 04:51:08;;;;;;;8.27;5.10;;;;;;;;;;5457623;26;19994;-79
2024/04/23 04:53:53;;;;;;;11.25;5.80;;;;;;;;;;5475080;26;19994;-83
2024/04/23 04:56:40;;;;;;;9.15;5.40;;;;;;;;;;5499338;26;20005;-83
2024/04/23 04:59:25;;;;;;;8.93;5.45;;;;;;;;;;5479092;26;20034;-85
2024/04/23 05:02:11;;;;;;;9.50;5.20;;;;;;;;;;5489339;26;20008;-86
2024/04/23 05:04:56;;;;;;;9.07;5.45;;;;;;;;;;5490615;26;20012;-85
2024/04/23 05:07:41;;;;;;;9.88;5.65;;;;;;;;;;5481152;26;20459;-85
2024/04/23 05:10:26;;;;;;;11.07;5.60;;;;;;;;;;5487639;26;20013;-87
2024/04/23 05:13:11;;;;;;;10.25;5.32;;;;;;;;;;5488966;26;20011;-87
2024/04/23 05:15:57;;;;;;;9.82;5.72;;;;;;;;;;5491688;26;20012;-87
2024/04/23 05:18:42;;;;;;;10.85;5.70;;;;;;;;;;5521376;25;19992;-86
2024/04/23 05:21:27;;;;;;;14.55;6.25;;;;;;;;;;5509540;26;20001;-82
2024/04/23 05:24:13;;;;;;;12.27;6.40;;;;;;;;;;5508646;26;20009;-85
2024/04/23 05:26:58;;;;;;;10.88;5.88;;;;;;;;;;5505668;25;20009;-83
2024/04/23 05:29:45;;;;;;;10.15;5.18;;;;;;;;;;5527064;25;20009;-83
2024/04/23 05:32:50;;;;;;;10.48;5.63;;;;;;;;;;5493900;25;19994;-83
2024/04/23 05:35:39;;;;;;;12.10;6.72;;;;;;;;;;5513148;25;20009;-86
2024/04/23 05:38:24;;;;;;;11.65;5.95;;;;;;;;;;5454085;26;20013;-85
2024/04/23 05:41:09;;;;;;;10.32;7.07;;;;;;;;;;5459310;26;20002;-86
2024/04/23 05:43:55;;;;;;;9.88;5.93;;;;;;;;;;5467324;26;20101;-85
2024/04/23 05:46:41;;;;;;;14.10;6.18;;;;;;;;;;5453069;26;20017;-86
2024/04/23 05:49:45;;;;;;;10.88;6.05;;;;;;;;;;5466750;26;20261;-87
2024/04/23 05:52:49;;;;;;;9.93;6.05;;;;;;;;;;5456668;25;19995;-87
2024/04/23 05:55:37;;;;;;;9.13;5.60;;;;;;;;;;5461795;26;20003;-86
2024/04/23 05:58:22;;;;;;;12.07;5.47;;;;;;;;;;5500804;25;19996;-87
2024/04/23 06:01:07;;;;;;;11.15;5.78;;;;;;;;;;5479164;26;20006;-86
2024/04/23 06:03:52;;;;;;;14.15;6.00;;;;;;;;;;5472702;25;20007;-86
2024/04/23 06:06:37;;;;;;;9.43;6.53;;;;;;;;;;5472691;25;19997;-86
2024/04/23 06:09:25;;;;;;;10.25;5.40;;;;;;;;;;5460536;26;19998;-87
2024/04/23 06:12:10;;;;;;;9.93;5.63;;;;;;;;;;5468712;26;20016;-87
2024/04/23 06:14:56;;;;;;;9.57;5.28;;;;;;;;;;5479726;26;20002;-86
2024/04/23 06:17:41;;;;;;;9.35;5.72;;;;;;;;;;5456740;26;20002;-87
2024/04/23 06:20:27;;;;;;;10.77;5.90;;;;;;;;;;5496457;25;20077;-86
2024/04/23 06:23:21;;;;;;;10.02;5.88;;;;;;;;;;5477330;25;20053;-86
2024/04/23 06:26:06;;;;;;;9.68;5.15;;;;;;;;;;5462966;26;20458;-86
2024/04/23 06:28:52;;;;;;;8.98;5.38;;;;;;;;;;5439157;26;20412;-86
2024/04/23 06:31:38;;;;;;;8.10;5.03;;;;;;;;;;5447642;26;20113;-86
2024/04/23 06:34:23;;;;;;;10.18;5.28;;;;;;;;;;5457558;26;20034;-86
2024/04/23 06:37:09;;;;;;;8.73;5.05;;;;;;;;;;5435539;26;20006;-86
2024/04/23 06:39:54;;;;;;;8.02;4.78;;;;;;;;;;5420409;26;19999;-85
2024/04/23 06:42:39;;;;;;;7.75;5.65;;;;;;;;;;5441991;26;20001;-85
2024/04/23 06:45:25;;;;;;;8.55;5.18;;;;;;;;;;5468200;26;20002;-85
2024/04/23 06:48:15;;;;;;;9.75;5.43;;;;;;;;;;5438170;26;20009;-84
2024/04/23 06:51:06;;;;;;;9.70;5.28;;;;;;;;;;5435632;26;20016;-86
2024/04/23 06:53:51;;;;;;;10.30;5.72;;;;;;;;;;5452159;26;20054;-86
2024/04/23 06:56:37;;;;;;;9.80;5.57;;;;;;;;;;5444472;26;20002;-86
2024/04/23 06:59:22;;;;;;;6.72;4.82;;;;;;;;;;5442474;26;20014;-87
2024/04/23 07:02:07;;;;;;;10.63;5.93;;;;;;;;;;5434668;26;20013;-86
2024/04/23 07:04:53;;;;;;;7.57;5.53;;;;;;;;;;5422512;26;19999;-87
2024/04/23 07:07:38;;;;;;;11.90;5.50;;;;;;;;;;5446414;26;20003;-87
2024/04/23 07:10:23;;;;;;;9.27;5.47;;;;;;;;;;5420281;26;19999;-86
2024/04/23 07:13:11;;;;;;;8.38;5.13;;;;;;;;;;5443080;26;19999;-85
2024/04/23 07:15:56;;;;;;;9.32;5.20;;;;;;;;;;5432141;26;19995;-87
2024/04/23 07:18:42;;;;;;;10.25;6.22;;;;;;;;;;5439565;26;20004;-85
2024/04/23 07:21:27;;;;;;;11.10;5.82;;;;;;;;;;5447151;26;19999;-85
2024/04/23 07:24:12;;;;;;;9.98;6.10;;;;;;;;;;5425342;26;20007;-86
2024/04/23 07:26:58;;;;;;;6.40;4.80;;;;;;;;;;5439837;26;20358;-84
2024/04/23 07:29:43;;;;;;;9.05;5.10;;;;;;;;;;5464034;26;19997;-86
2024/04/23 07:32:28;;;;;;;9.68;5.38;;;;;;;;;;5442471;26;19994;-86
2024/04/23 07:35:13;;;;;;;11.07;5.57;;;;;;;;;;5477454;25;19996;-86
2024/04/23 07:37:59;;;;;;;11.07;4.82;;;;;;;;;;5472809;26;19998;-87
2024/04/23 07:40:46;;;;;;;12.57;5.13;;;;;;;;;;5455213;26;19998;-86
2024/04/23 07:43:31;;;;;;;8.48;5.55;;;;;;;;;;5464000;26;20415;-86
2024/04/23 07:46:16;;;;;;;7.38;5.10;;;;;;;;;;5468841;26;20002;-86
2024/04/23 07:49:02;;;;;;;7.00;4.25;;;;;;;;;;5455759;26;20041;-85
2024/04/23 07:51:47;;;;;;;6.93;4.75;;;;;;;;;;5455721;26;19994;-86
2024/04/23 07:54:32;;;;;;;8.98;5.43;;;;;;;;;;5456757;25;20010;-85
2024/04/23 07:57:17;;;;;;;7.97;5.18;;;;;;;;;;5486857;26;20464;-85
2024/04/23 08:00:03;;;;;;;12.48;5.82;;;;;;;;;;5473868;25;20001;-86
2024/04/23 08:02:53;;;;;;;8.15;4.97;;;;;;;;;;5456574;26;20006;-85
2024/04/23 08:05:39;;;;;;;9.80;4.68;;;;;;;;;;5463881;25;20004;-86
2024/04/23 08:08:24;;;;;;;7.25;4.93;;;;;;;;;;5429875;26;19998;-86
2024/04/23 08:11:09;;;;;;;11.27;4.93;;;;;;;;;;5455932;26;20095;-86
2024/04/23 08:13:54;;;;;;;6.90;4.93;;;;;;;;;;5454782;26;19994;-86
2024/04/23 08:16:39;;;;;;;7.75;4.90;;;;;;;;;;5489740;26;19994;-87
2024/04/23 08:19:25;;;;;;;8.00;4.85;;;;;;;;;;5455565;26;20073;-85
2024/04/23 08:22:10;;;;;;;7.88;4.80;;;;;;;;;;5455100;26;20006;-87
2024/04/23 08:24:58;;;;;;;7.10;5.22;;;;;;;;;;5480645;25;20401;-85
2024/04/23 08:27:47;;;;;;;8.50;5.20;;;;;;;;;;5449948;26;20531;-86
2024/04/23 08:30:32;;;;;;;6.40;4.95;;;;;;;;;;5464962;26;20009;-85
2024/04/23 08:33:17;;;;;;;7.97;4.57;;;;;;;;;;5445915;26;20356;-86
2024/04/23 08:36:03;;;;;;;6.05;4.15;;;;;;;;;;5466493;26;20002;-86
2024/04/23 08:38:48;;;;;;;5.90;4.38;;;;;;;;;;5443466;26;20339;-85
2024/04/23 08:41:38;;;;;;;8.25;4.72;;;;;;;;;;5443096;26;20083;-85
2024/04/23 08:44:23;;;;;;;;;;;;;;;;;;5444602;26;19999;-86
2024/04/23 08:47:08;;;;;;;8.23;4.82;;;;;;;;;;5465020;26;19940;-86
2024/04/23 08:49:54;;;;;;;9.05;4.68;;;;;;;;;;5470317;26;20045;-85
2024/04/23 08:52:39;;;;;;;7.47;4.80;;;;;;;;;;5442876;26;20014;-85
2024/04/23 08:55:25;;;;;;;6.78;4.57;;;;;;;;;;5420293;26;19999;-85
2024/04/23 08:58:11;;;;;;;5.90;3.97;;;;;;;;;;5461366;26;20006;-87
2024/04/23 09:00:59;;;;;;;7.82;4.60;;;;;;;;;;5450917;26;19995;-85
2024/04/23 09:03:47;;;;;;;6.38;4.65;;;;;;;;;;5455096;26;20034;-85
2024/04/23 09:06:38;;;;;;;6.07;4.25;;;;;;;;;;5457436;26;19997;-85
2024/04/23 09:09:25;;;;;;;7.10;4.60;;;;;;;;;;5442288;26;20002;-85
2024/04/23 09:12:10;;;;;;;6.20;4.35;;;;;;;;;;5418624;26;19995;-85
2024/04/23 09:14:57;;;;;;;6.30;4.05;;;;;;;;;;5455653;26;20441;-85
2024/04/23 09:17:55;;;;;;;5.68;4.35;;;;;;;;;;5448605;26;20002;-86
2024/04/23 09:20:40;;;;;;;6.50;4.38;;;;;;;;;;5442966;26;20003;-86
2024/04/23 09:23:26;;;;;;;7.28;4.25;;;;;;;;;;5465703;26;20039;-85
2024/04/23 09:26:11;;;;;;;6.28;4.55;;;;;;;;;;5450304;26;20002;-85
2024/04/23 09:28:57;;;;;;;5.88;4.13;;;;;;;;;;5442285;26;20003;-85
2024/04/23 09:31:43;;;;;;;7.68;3.90;;;;;;;;;;5462368;26;20045;-86
2024/04/23 09:34:31;;;;;;;6.68;4.20;;;;;;;;;;5488887;26;20410;-86
2024/04/23 09:37:16;;;;;;;8.43;4.28;;;;;;;;;;5468052;26;20214;-86
2024/04/23 09:40:02;;;;;;;8.35;4.30;;;;;;;;;;5445155;26;19999;-86
2024/04/23 09:42:52;;;;;;;9.57;4.38;;;;;;;;;;5442217;26;20510;-86
2024/04/23 09:45:38;;;;;;;5.35;3.72;;;;;;;;;;5417396;26;19999;-86
2024/04/23 09:48:33;;;;;;;9.57;4.60;;;;;;;;;;5438954;26;20056;-86
2024/04/23 09:51:19;;;;;;;6.03;4.22;;;;;;;;;;5462245;26;20010;-85
2024/04/23 09:54:04;;;;;;;6.88;4.63;;;;;;;;;;5442003;26;20003;-86
2024/04/23 09:56:59;;;;;;;7.55;4.70;;;;;;;;;;5461633;26;20010;-86
2024/04/23 09:59:45;;;;;;;8.35;4.07;;;;;;;;;;5442236;26;20341;-86
2024/04/23 10:02:31;;;;;;;8.73;4.45;;;;;;;;;;5451785;26;19999;-86
2024/04/23 10:05:21;;;;;;;6.88;4.13;;;;;;;;;;5441552;26;20062;-86
2024/04/23 10:08:11;;;;;;;6.45;4.00;;;;;;;;;;5463795;26;20062;-86
2024/04/23 10:10:57;;;;;;;5.55;3.95;;;;;;;;;;5415858;26;20017;-85
2024/04/23 10:13:46;;;;;;;6.32;3.95;;;;;;;;;;5441223;26;20003;-86
2024/04/23 10:16:36;;;;;;;7.80;3.72;;;;;;;;;;5422477;26;20362;-86
2024/04/23 10:19:21;;;;;;;;;;;;;;;;;;5475099;26;20006;-86
2024/04/23 10:22:06;;;;;;;7.18;4.22;;;;;;;;;;5458085;26;19939;-86
2024/04/23 10:24:53;;;;;;;6.88;4.43;;;;;;;;;;5442091;26;20353;-86
2024/04/23 10:27:40;;;;;;;5.72;4.18;;;;;;;;;;5473053;26;19998;-85
2024/04/23 10:30:28;;;;;;;8.63;4.53;;;;;;;;;;5441512;26;20003;-86
2024/04/23 10:33:14;;;;;;;8.55;4.18;;;;;;;;;;5462767;26;20007;-86
2024/04/23 10:36:00;;;;;;;6.10;4.20;;;;;;;;;;5440982;26;20002;-86
2024/04/23 10:38:45;;;;;;;6.25;4.22;;;;;;;;;;5452332;26;20013;-86
2024/04/23 10:41:33;;;;;;;6.78;4.82;;;;;;;;;;5447380;26;20043;-86
2024/04/23 10:44:19;;;;;;;5.70;4.05;;;;;;;;;;5456617;26;20010;-86
2024/04/23 10:47:05;;;;;;;5.20;3.83;;;;;;;;;;5471656;26;20011;-86
2024/04/23 10:49:50;;;;;;;7.93;3.70;;;;;;;;;;5473500;26;20025;-86
2024/04/23 10:52:36;;;;;;;5.60;4.05;;;;;;;;;;5451272;26;20021;-86
2024/04/23 10:55:21;;;;;;;7.30;3.80;;;;;;;;;;5454955;26;20017;-86
2024/04/23 10:58:07;;;;;;;4.47;3.22;;;;;;;;;;5445197;26;20017;-85
2024/04/23 11:00:58;;;;;;;5.55;3.47;;;;;;;;;;5465698;26;20006;-86
2024/04/23 11:03:54;;;;;;;7.70;4.60;;;;;;;;;;5434872;26;20002;-86
2024/04/23 11:06:40;;;;;;;5.25;3.78;;;;;;;;;;5466274;26;19999;-85
2024/04/23 11:09:26;;;;;;;6.57;3.95;;;;;;;;;;5448251;26;20031;-86
2024/04/23 11:12:24;;;;;;;5.43;3.53;;;;;;;;;;5444038;26;20003;-86
2024/04/23 11:15:14;;;;;;;6.97;3.38;;;;;;;;;;5444787;26;19998;-86
2024/04/23 11:18:03;;;;;;;7.88;4.55;;;;;;;;;;5453210;26;20087;-86
2024/04/23 11:20:51;;;;;;;7.00;4.20;;;;;;;;;;5444934;26;20445;-84
2024/04/23 11:23:42;;;;;;;8.90;4.03;;;;;;;;;;5444939;26;20417;-85
2024/04/23 11:26:29;;;;;;;6.03;3.72;;;;;;;;;;5452064;26;20030;-85
2024/04/23 11:29:14;;;;;;;7.25;3.78;;;;;;;;;;5433420;26;20002;-85
2024/04/23 11:32:00;;;;;;;8.85;4.07;;;;;;;;;;5469162;26;20029;-85
2024/04/23 11:34:45;;;;;;;7.82;4.43;;;;;;;;;;5454800;26;20078;-85
2024/04/23 11:37:31;;;;;;;6.00;3.42;;;;;;;;;;5455423;26;19998;-86
2024/04/23 11:40:19;;;;;;;6.32;3.38;;;;;;;;;;5454663;26;20002;-86
2024/04/23 11:43:05;;;;;;;7.27;3.83;;;;;;;;;;5458297;26;20065;-85
2024/04/23 11:45:50;;;;;;;4.82;3.65;;;;;;;;;;5429734;26;20017;-85
2024/04/23 11:48:35;;;;;;;4.18;3.05;;;;;;;;;;5464846;26;20500;-86
2024/04/23 11:51:22;;;;;;;6.07;4.00;;;;;;;;;;5474469;26;20009;-84
2024/04/23 11:54:07;;;;;;;4.70;2.95;;;;;;;;;;5482185;26;20002;-86
2024/04/23 11:56:52;;;;;;;5.60;3.28;;;;;;;;;;5475754;26;20300;-85
2024/04/23 11:59:43;;;;;;;7.00;3.53;;;;;;;;;;5454303;26;20030;-85
2024/04/23 12:02:30;;;;;;;4.35;3.33;;;;;;;;;;5454526;26;20089;-85
2024/04/23 12:05:16;;;;;;;7.82;4.32;;;;;;;;;;5454946;26;20356;-85
2024/04/23 12:08:01;;;;;;;6.03;3.60;;;;;;;;;;5454886;26;20002;-85
2024/04/23 12:10:47;;;;;;;6.85;3.95;;;;;;;;;;5453733;26;19994;-85
2024/04/23 12:13:32;;;;;;;5.35;3.40;;;;;;;;;;5472509;26;20004;-84
2024/04/23 12:16:17;;;;;;;5.53;3.63;;;;;;;;;;5460218;26;19998;-85
2024/04/23 12:19:03;;;;;;;6.43;3.72;;;;;;;;;;5471177;26;20005;-86
2024/04/23 12:21:49;;;;;;;5.88;3.72;;;;;;;;;;5454229;26;20013;-86
2024/04/23 12:24:35;;;;;;;4.80;3.33;;;;;;;;;;5463681;26;20006;-85
2024/04/23 12:27:21;;;;;;;4.55;3.42;;;;;;;;;;5435837;26;20002;-85
2024/04/23 12:30:06;;;;;;;4.30;3.08;;;;;;;;;;5453801;26;20006;-85
2024/04/23 12:32:54;;;;;;;4.95;3.67;;;;;;;;;;5453946;26;20194;-84
2024/04/23 12:35:40;;;;;;;6.25;3.80;;;;;;;;;;5472916;26;20002;-85
2024/04/23 12:38:25;;;;;;;7.32;4.43;;;;;;;;;;5454361;26;20449;-85
2024/04/23 12:41:11;;;;;;;5.82;4.03;;;;;;;;;;5453324;26;20444;-85
2024/04/23 12:43:56;;;;;;;7.72;4.18;;;;;;;;;;5468631;26;20074;-84
2024/04/23 12:46:42;;;;;;;6.63;3.88;;;;;;;;;;5459704;26;20024;-86
2024/04/23 12:49:35;;;;;;;6.25;4.28;;;;;;;;;;5472692;26;19998;-86
2024/04/23 12:52:20;;;;;;;6.47;4.18;;;;;;;;;;5463976;26;20001;-86
2024/04/23 12:55:05;;;;;;;6.53;3.88;;;;;;;;;;5469937;26;20012;-86
2024/04/23 12:57:51;;;;;;;5.82;3.55;;;;;;;;;;5476959;26;20469;-86
2024/04/23 13:00:36;;;;;;;6.93;3.85;;;;;;;;;;5453292;26;19998;-86
2024/04/23 13:03:22;;;;;;;6.53;4.07;;;;;;;;;;5457180;26;19998;-86
2024/04/23 13:06:07;;;;;;;6.82;4.07;;;;;;;;;;5478961;26;20013;-86
2024/04/23 13:08:52;;;;;;;5.03;3.55;;;;;;;;;;5454058;26;20002;-86
2024/04/23 13:11:37;;;;;;;6.13;4.00;;;;;;;;;;5452403;26;20515;-86
2024/04/23 13:14:22;;;;;;;8.45;4.43;;;;;;;;;;5490090;26;20013;-87
2024/04/23 13:17:08;;;;;;;5.30;3.67;;;;;;;;;;5469311;26;20013;-86
2024/04/23 13:19:53;;;;;;;6.55;3.63;;;;;;;;;;5479360;26;20002;-86
2024/04/23 13:22:38;;;;;;;7.05;3.60;;;;;;;;;;5472810;26;20014;-86
2024/04/23 13:25:24;;;;;;;5.95;3.95;;;;;;;;;;5453617;26;20062;-85
2024/04/23 13:28:10;;;;;;;5.68;4.05;;;;;;;;;;5453413;26;19998;-85
2024/04/23 13:30:55;;;;;;;6.80;4.18;;;;;;;;;;5452924;26;20050;-85
2024/04/23 13:33:42;;;;;;;6.70;4.07;;;;;;;;;;5464348;26;20010;-86
2024/04/23 13:36:27;;;;;;;5.85;3.80;;;;;;;;;;5465240;26;20004;-86
2024/04/23 13:39:13;;;;;;;6.40;3.60;;;;;;;;;;5461143;26;20005;-85
2024/04/23 13:41:58;;;;;;;5.75;3.38;;;;;;;;;;5453140;26;19998;-85
2024/04/23 13:44:43;;;;;;;5.32;3.72;;;;;;;;;;5452926;26;19998;-85
2024/04/23 13:47:36;;;;;;;4.82;3.38;;;;;;;;;;5461684;26;20014;-86
2024/04/23 13:50:21;;;;;;;6.88;3.90;;;;;;;;;;5507031;25;20390;-86
2024/04/23 13:53:06;;;;;;;5.90;4.20;;;;;;;;;;5468547;26;19998;-86
2024/04/23 13:55:52;;;;;;;7.03;4.50;;;;;;;;;;5475749;26;19997;-85
2024/04/23 13:58:37;;;;;;;7.50;4.03;;;;;;;;;;5484484;26;20009;-86
2024/04/23 14:01:23;;;;;;;6.32;3.60;;;;;;;;;;5469181;26;20085;-86
2024/04/23 14:04:08;;;;;;;5.47;3.53;;;;;;;;;;5465849;26;19997;-86
2024/04/23 14:06:53;;;;;;;6.10;3.78;;;;;;;;;;5469964;26;20013;-87
2024/04/23 14:09:39;;;;;;;4.57;3.25;;;;;;;;;;5488121;26;20001;-87
2024/04/23 14:12:26;;;;;;;6.20;3.50;;;;;;;;;;5480054;26;20012;-87
2024/04/23 14:15:11;;;;;;;7.32;4.32;;;;;;;;;;5452560;26;19998;-87
2024/04/23 14:17:56;;;;;;;4.93;3.55;;;;;;;;;;5453372;26;20013;-86
2024/04/23 14:20:42;;;;;;;6.75;4.10;;;;;;;;;;5490391;26;20038;-86
2024/04/23 14:23:31;;;;;;;6.65;4.15;;;;;;;;;;5455331;26;20010;-86
2024/04/23 14:26:17;;;;;;;6.00;4.25;;;;;;;;;;5462218;26;20074;-87
2024/04/23 14:29:02;;;;;;;6.55;3.55;;;;;;;;;;5458928;26;20002;-87
2024/04/23 14:31:47;;;;;;;5.72;3.22;;;;;;;;;;5456293;26;20018;-87
2024/04/23 14:34:33;;;;;;;6.00;3.70;;;;;;;;;;5490491;26;19998;-87
2024/04/23 14:37:18;;;;;;;4.80;3.08;;;;;;;;;;5492176;26;20001;-86
2024/04/23 14:40:04;;;;;;;4.18;3.17;;;;;;;;;;5463980;26;20002;-86
2024/04/23 14:42:51;;;;;;;4.90;3.35;;;;;;;;;;5456145;26;20016;-87
2024/04/23 14:45:36;;;;;;;6.07;3.35;;;;;;;;;;5463149;26;20423;-87
2024/04/23 14:48:22;;;;;;;5.45;3.70;;;;;;;;;;5455474;26;20006;-86
2024/04/23 14:51:11;;;;;;;5.25;3.65;;;;;;;;;;5456175;26;20006;-86
2024/04/23 14:53:56;;;;;;;6.15;3.35;;;;;;;;;;5475269;26;20115;-86
2024/04/23 14:56:41;;;;;;;6.22;3.67;;;;;;;;;;5473591;26;20012;-86
2024/04/23 14:59:26;;;;;;;6.38;3.53;;;;;;;;;;5466274;26;19997;-86
2024/04/23 15:02:15;;;;;;;7.10;3.70;;;;;;;;;;5472336;26;20006;-86
2024/04/23 15:05:00;;;;;;;5.43;3.35;;;;;;;;;;5481053;26;20046;-86
2024/04/23 15:07:45;;;;;;;4.93;3.53;;;;;;;;;;5484081;26;20002;-86
2024/04/23 15:10:31;;;;;;;6.57;3.35;;;;;;;;;;5472154;26;20002;-86
2024/04/23 15:13:21;;;;;;;4.53;2.92;;;;;;;;;;5455053;26;20353;-87
2024/04/23 15:16:07;;;;;;;5.82;3.28;;;;;;;;;;5455323;26;20013;-86
2024/04/23 15:18:53;;;;;;;6.40;3.55;;;;;;;;;;5455652;26;20074;-87
2024/04/23 15:21:38;;;;;;;3.90;2.90;;;;;;;;;;5504946;26;19997;-84
2024/04/23 15:24:24;;;;;;;4.20;3.15;;;;;;;;;;5469416;26;20005;-84
2024/04/23 15:27:09;;;;;;;5.00;3.22;;;;;;;;;;5474845;26;19998;-85
2024/04/23 15:29:54;;;;;;;4.68;2.85;;;;;;;;;;5462789;26;19998;-85
2024/04/23 15:32:39;;;;;;;4.45;2.97;;;;;;;;;;5494766;26;20384;-86
2024/04/23 15:35:25;;;;;;;8.98;3.35;;;;;;;;;;5483987;26;20008;-86
2024/04/23 15:38:10;;;;;;;4.35;3.08;;;;;;;;;;5490530;26;20020;-85
2024/04/23 15:41:05;;;;;;;4.55;3.08;;;;;;;;;;5491695;26;19993;-86
2024/04/23 15:43:51;;;;;;;4.90;3.33;;;;;;;;;;5469910;26;20427;-87
2024/04/23 15:46:36;;;;;;;4.95;3.10;;;;;;;;;;5481130;26;20017;-85
2024/04/23 15:49:21;;;;;;;5.50;3.35;;;;;;;;;;5460581;26;20463;-85
2024/04/23 15:52:07;;;;;;;4.70;2.90;;;;;;;;;;5506455;26;20073;-85
2024/04/23 15:54:52;;;;;;;4.53;3.17;;;;;;;;;;5472750;26;20032;-85
2024/04/23 15:57:37;;;;;;;5.93;3.00;;;;;;;;;;5499807;26;19997;-84
2024/04/23 16:00:22;;;;;;;4.00;2.70;;;;;;;;;;5458477;26;20479;-84
2024/04/23 16:03:08;;;;;;;6.10;3.28;;;;;;;;;;5485033;26;20838;-86
2024/04/23 16:05:53;;;;;;;3.55;2.67;;;;;;;;;;5478187;26;19998;-83
2024/04/23 16:08:38;;;;;;;5.28;3.17;;;;;;;;;;5504255;26;20008;-84
2024/04/23 16:11:23;;;;;;;7.53;2.92;;;;;;;;;;5473051;26;19998;-84
2024/04/23 16:14:09;;;;;;;4.72;3.17;;;;;;;;;;5479297;26;20424;-82
2024/04/23 16:16:54;;;;;;;4.60;3.03;;;;;;;;;;5473349;26;19993;-84
2024/04/23 16:19:39;;;;;;;4.72;3.20;;;;;;;;;;5495415;26;20009;-84
2024/04/23 16:22:29;;;;;;;4.93;3.17;;;;;;;;;;5454623;26;20013;-83
2024/04/23 16:25:14;;;;;;;;;;;;;;;;;;5476275;26;19998;-81
2024/04/23 16:27:59;;;;;;;4.40;3.10;;;;;;;;;;5466690;26;19948;-83
2024/04/23 16:30:45;;;;;;;4.28;2.85;;;;;;;;;;5474567;26;20009;-83
2024/04/23 16:33:37;;;;;;;5.75;3.00;;;;;;;;;;5472824;26;20001;-84
2024/04/23 16:36:23;;;;;;;7.10;3.25;;;;;;;;;;5496675;26;20009;-85
2024/04/23 16:39:08;;;;;;;6.22;3.63;;;;;;;;;;5490815;26;20009;-84